Guatemala City, Guatemala
Current Conditions -  °F | °C
As of 6:00 PM on Sunday 23 Nov 2014 (Local Time) from MGGT Reporting Station
Scattered Clouds Scattered Clouds  
Wind Chill: 21°   Ceiling: Unl
Heat Index: 21°   Visibility: 6mi
Dew Point: 18°   Wind: 7mph
Humidity: 83%   Direction: 180°S
Pressure: 30.15"   Gusts: NA
Location:  14.58°N, 90.52°W
Report Text: MGGT 240000Z 18006KT 9999 FEW018 SCT070 21/18 Q1021 A3015
Loading
Personal Weather Stations






























Interactive Weather Map New forecast layout! Learn more

10-Day Weather Forecast

Advertisements
Track Severe Weather on mobile